createdAt,value
2019-05-11T00:02:23.424Z,92.40
2019-05-11T00:04:49.476Z,92.40
2019-05-11T00:07:15.544Z,92.40
2019-05-11T00:09:56.920Z,92.40
2019-05-11T00:12:09.576Z,92.50
2019-05-11T00:14:35.631Z,92.50
2019-05-11T00:17:02.034Z,92.50
2019-05-11T00:19:28.164Z,92.60
2019-05-11T00:21:54.228Z,92.60
2019-05-11T00:24:20.281Z,92.60
2019-05-11T00:26:46.366Z,92.70
2019-05-11T00:29:12.421Z,92.70
2019-05-11T00:31:38.530Z,92.80
2019-05-11T00:34:04.569Z,92.80
2019-05-11T00:36:30.616Z,92.80
2019-05-11T00:38:56.676Z,92.80
2019-05-11T00:41:22.795Z,92.80
2019-05-11T00:43:48.927Z,92.80
2019-05-11T00:47:03.375Z,93.10
2019-05-11T00:49:29.431Z,92.80
2019-05-11T00:51:55.484Z,92.90
2019-05-11T00:54:21.563Z,92.90
2019-05-11T00:56:47.612Z,93.00
2019-05-11T00:59:21.473Z,93.00
2019-05-11T01:04:21.283Z,93.00
2019-05-11T01:06:47.398Z,93.10
2019-05-11T01:09:13.504Z,93.20
2019-05-11T01:11:39.563Z,93.10
2019-05-11T01:14:05.628Z,93.10
2019-05-11T01:16:31.695Z,93.10
2019-05-11T01:18:57.760Z,93.10
2019-05-11T01:21:23.829Z,93.20
2019-05-11T01:23:49.884Z,93.20
2019-05-11T01:28:28.731Z,93.10
2019-05-11T01:30:54.783Z,93.40
2019-05-11T01:33:20.850Z,93.30
2019-05-11T01:35:46.892Z,93.40
2019-05-11T01:38:12.948Z,93.40
2019-05-11T01:40:39.000Z,93.40
2019-05-11T01:43:05.060Z,93.30
2019-05-11T01:45:31.115Z,93.30
2019-05-11T01:47:57.204Z,93.30
2019-05-11T01:50:23.260Z,93.30
2019-05-11T01:52:49.312Z,93.30
2019-05-11T01:55:15.389Z,93.30
2019-05-11T01:57:41.455Z,93.30
2019-05-11T02:00:08.807Z,93.30
2019-05-11T02:02:34.860Z,93.30
2019-05-11T02:05:19.524Z,93.40
2019-05-11T02:07:45.571Z,93.40
2019-05-11T02:10:11.663Z,93.40
2019-05-11T02:12:37.732Z,93.40
2019-05-11T02:15:04.284Z,93.40
2019-05-11T02:17:30.337Z,93.50
2019-05-11T02:19:56.390Z,93.50
2019-05-11T02:22:22.451Z,93.40
2019-05-11T02:24:48.615Z,93.50
2019-05-11T02:27:14.659Z,93.50
2019-05-11T02:29:41.687Z,93.80
2019-05-11T02:32:08.076Z,93.50
2019-05-11T02:34:34.233Z,93.60
2019-05-11T02:37:00.308Z,93.60
2019-05-11T02:39:26.463Z,93.70
2019-05-11T02:41:52.517Z,93.70
2019-05-11T02:44:18.706Z,93.00
2019-05-11T02:46:44.747Z,94.10
2019-05-11T02:49:10.811Z,94.20
2019-05-11T02:51:37.759Z,94.40
2019-05-11T02:54:04.956Z,94.50
2019-05-11T02:56:31.022Z,94.60
2019-05-11T02:58:57.064Z,94.70
2019-05-11T03:01:23.130Z,94.90
2019-05-11T03:03:49.211Z,95.00
2019-05-11T03:06:15.365Z,95.10
2019-05-11T03:08:41.425Z,95.20
2019-05-11T03:11:07.508Z,95.20
2019-05-11T03:13:33.562Z,95.30
2019-05-11T03:15:59.607Z,95.20
2019-05-11T03:18:25.664Z,95.20
2019-05-11T03:20:51.732Z,95.10
2019-05-11T03:23:17.797Z,95.10
2019-05-11T03:25:43.854Z,95.00
2019-05-11T03:28:09.905Z,94.90
2019-05-11T03:30:35.980Z,94.80
2019-05-11T03:33:02.265Z,94.70
2019-05-11T03:35:28.504Z,94.60
2019-05-11T03:37:54.742Z,94.70
2019-05-11T03:40:20.851Z,94.60
2019-05-11T03:42:46.915Z,94.80
2019-05-11T03:45:13.707Z,94.40
2019-05-11T03:47:39.848Z,94.70
2019-05-11T03:50:06.400Z,94.40
2019-05-11T03:52:32.468Z,94.40
2019-05-11T03:54:58.526Z,94.40
2019-05-11T03:57:24.591Z,94.50
2019-05-11T03:59:50.735Z,94.40
2019-05-11T04:02:16.888Z,94.40
2019-05-11T04:04:42.942Z,94.40
2019-05-11T04:07:09.014Z,94.70
2019-05-11T04:09:35.132Z,94.50
2019-05-11T04:12:01.284Z,94.60
2019-05-11T04:14:27.344Z,94.60
2019-05-11T04:16:53.394Z,94.60
2019-05-11T04:19:19.488Z,94.70
2019-05-11T04:21:45.584Z,94.80
2019-05-11T04:24:11.729Z,95.20
2019-05-11T04:26:37.888Z,95.20
2019-05-11T04:29:04.031Z,95.40
2019-05-11T04:31:30.090Z,95.50
2019-05-11T04:33:56.160Z,95.80
2019-05-11T04:38:48.647Z,95.90
2019-05-11T04:41:14.697Z,96.20
2019-05-11T04:43:40.751Z,96.20
2019-05-11T04:46:06.805Z,96.20
2019-05-11T04:48:32.872Z,96.30
2019-05-11T04:50:58.940Z,96.40
2019-05-11T04:53:25.013Z,96.40
2019-05-11T04:55:51.164Z,96.60
2019-05-11T04:58:17.232Z,96.00
2019-05-11T05:00:43.285Z,95.80
2019-05-11T05:03:10.047Z,96.50
2019-05-11T05:05:36.423Z,95.00
2019-05-11T05:08:09.629Z,94.40
2019-05-11T05:10:30.459Z,93.90
2019-05-11T05:13:09.655Z,93.70
2019-05-11T05:15:24.485Z,93.50
2019-05-11T05:17:50.623Z,93.50
2019-05-11T05:20:17.279Z,92.50
2019-05-11T05:22:43.401Z,91.60
2019-05-11T05:25:11.587Z,91.50
2019-05-11T05:27:37.671Z,91.10
2019-05-11T05:30:05.999Z,90.10
2019-05-11T05:32:32.168Z,89.20
2019-05-11T05:34:58.215Z,89.50
2019-05-11T05:37:24.631Z,89.60
2019-05-11T05:39:51.123Z,90.30
2019-05-11T05:42:17.280Z,90.20
2019-05-11T05:44:43.331Z,89.40
2019-05-11T05:47:09.444Z,86.90
2019-05-11T05:49:35.588Z,88.10
2019-05-11T05:52:01.746Z,88.50
2019-05-11T05:54:27.999Z,89.70
2019-05-11T05:56:54.053Z,89.90
2019-05-11T05:59:20.125Z,90.70
2019-05-11T06:01:46.182Z,91.40
2019-05-11T06:04:12.420Z,86.70
2019-05-11T06:06:38.483Z,86.00
2019-05-11T06:09:06.253Z,82.90
2019-05-11T06:11:32.345Z,79.70
2019-05-11T06:13:58.487Z,77.30
2019-05-11T06:16:24.556Z,77.40
2019-05-11T06:18:50.616Z,75.40
2019-05-11T06:21:16.720Z,73.00
2019-05-11T06:23:42.819Z,73.40
2019-05-11T06:26:08.976Z,71.80
2019-05-11T06:28:35.051Z,70.90
2019-05-11T06:31:01.107Z,71.60
2019-05-11T06:33:27.196Z,72.30
2019-05-11T06:35:53.256Z,71.40
2019-05-11T06:38:19.359Z,71.90
2019-05-11T06:40:45.521Z,71.90
2019-05-11T06:43:11.596Z,70.70
2019-05-11T06:45:37.814Z,69.20
2019-05-11T06:48:03.858Z,67.80
2019-05-11T06:50:29.924Z,68.20
2019-05-11T06:52:55.972Z,68.80
2019-05-11T06:55:22.069Z,68.60
2019-05-11T06:57:48.115Z,66.90
2019-05-11T07:00:14.737Z,66.60
2019-05-11T07:02:40.791Z,66.20
2019-05-11T07:05:07.042Z,65.90
2019-05-11T07:07:46.548Z,66.40
2019-05-11T07:10:01.998Z,65.30
2019-05-11T07:12:28.069Z,65.90
2019-05-11T07:14:54.335Z,66.60
2019-05-11T07:17:20.433Z,63.70
2019-05-11T07:19:47.664Z,62.70
2019-05-11T07:22:13.956Z,62.30
2019-05-11T07:24:39.999Z,60.30
2019-05-11T07:27:06.169Z,60.20
2019-05-11T07:29:32.223Z,60.10
2019-05-11T07:32:05.574Z,57.80
2019-05-11T07:34:27.802Z,56.80
2019-05-11T07:36:54.027Z,57.30
2019-05-11T07:41:47.795Z,55.30
2019-05-11T07:44:14.272Z,55.50
2019-05-11T07:46:40.355Z,54.70
2019-05-11T07:49:08.561Z,55.20
2019-05-11T07:51:34.391Z,54.20
2019-05-11T07:54:00.501Z,53.80
2019-05-11T07:56:28.557Z,54.60
2019-05-11T07:58:54.515Z,54.80
2019-05-11T08:01:20.628Z,51.60
2019-05-11T08:03:48.527Z,50.70
2019-05-11T08:06:14.911Z,51.70
2019-05-11T08:08:41.099Z,52.00
2019-05-11T08:11:08.149Z,51.10
2019-05-11T08:13:34.533Z,52.00
2019-05-11T08:16:00.587Z,52.30
2019-05-11T08:18:28.241Z,51.50
2019-05-11T08:20:54.607Z,50.60
2019-05-11T08:23:20.760Z,50.40
2019-05-11T08:25:48.613Z,49.60
2019-05-11T08:28:14.857Z,49.90
2019-05-11T08:30:41.008Z,48.30
2019-05-11T08:33:08.702Z,48.70
2019-05-11T08:35:34.936Z,48.20
2019-05-11T08:38:01.210Z,47.40
2019-05-11T08:40:28.876Z,48.00
2019-05-11T08:42:55.238Z,47.50
2019-05-11T08:45:24.745Z,47.40
2019-05-11T08:47:49.499Z,47.30
2019-05-11T08:50:15.797Z,47.10
2019-05-11T08:52:42.655Z,48.20
2019-05-11T08:55:09.346Z,47.10
2019-05-11T08:57:35.519Z,47.30
2019-05-11T09:00:01.878Z,46.70
2019-05-11T09:02:27.995Z,45.70
2019-05-11T09:04:54.095Z,45.70
2019-05-11T09:07:20.140Z,45.80
2019-05-11T09:09:48.184Z,45.60
2019-05-11T09:12:14.180Z,44.30
2019-05-11T09:14:40.373Z,45.40
2019-05-11T09:17:07.825Z,45.00
2019-05-11T09:19:34.090Z,43.60
2019-05-11T09:22:03.050Z,43.30
2019-05-11T09:24:28.341Z,45.30
2019-05-11T09:26:54.630Z,44.50
2019-05-11T09:29:20.820Z,43.90
2019-05-11T09:31:48.684Z,43.70
2019-05-11T09:34:14.840Z,44.20
2019-05-11T09:36:40.942Z,44.50
2019-05-11T09:39:08.424Z,44.70
2019-05-11T09:41:35.336Z,45.40
2019-05-11T09:44:01.512Z,43.60
2019-05-11T09:46:27.993Z,43.30
2019-05-11T09:48:54.211Z,43.20
2019-05-11T09:51:20.270Z,43.90
2019-05-11T09:53:48.282Z,43.80
2019-05-11T09:56:14.288Z,43.40
2019-05-11T09:58:40.339Z,42.50
2019-05-11T10:01:08.657Z,43.20
2019-05-11T10:03:34.396Z,43.10
2019-05-11T10:06:00.447Z,41.60
2019-05-11T10:08:28.544Z,42.70
2019-05-11T10:10:54.476Z,42.10
2019-05-11T10:13:20.624Z,41.80
2019-05-11T10:16:01.017Z,40.70
2019-05-11T10:18:14.651Z,40.20
2019-05-11T10:20:40.695Z,41.20
2019-05-11T10:23:08.396Z,40.40
2019-05-11T10:25:34.710Z,41.20
2019-05-11T10:28:00.765Z,41.00
2019-05-11T10:30:28.038Z,40.40
2019-05-11T10:32:54.375Z,40.10
2019-05-11T10:35:20.470Z,42.30
2019-05-11T10:37:47.810Z,41.60
2019-05-11T10:40:14.267Z,41.60
2019-05-11T10:42:40.324Z,42.80
2019-05-11T10:45:09.118Z,42.60
2019-05-11T10:47:34.975Z,42.20
2019-05-11T10:50:01.522Z,41.90
2019-05-11T10:52:28.680Z,41.40
2019-05-11T10:54:55.186Z,41.50
2019-05-11T10:57:21.259Z,39.40
2019-05-11T10:59:48.865Z,39.50
2019-05-11T11:02:15.183Z,38.20
2019-05-11T11:04:41.242Z,37.80
2019-05-11T11:07:07.829Z,37.00
2019-05-11T11:09:34.096Z,37.10
2019-05-11T11:12:00.172Z,36.00
2019-05-11T11:14:28.466Z,37.50
2019-05-11T11:16:54.193Z,38.00
2019-05-11T11:19:20.242Z,38.50
2019-05-11T11:21:48.585Z,38.40
2019-05-11T11:24:14.383Z,37.90
2019-05-11T11:26:40.446Z,38.50
2019-05-11T11:29:08.395Z,38.70
2019-05-11T11:31:34.447Z,38.30
2019-05-11T11:34:00.499Z,38.50
2019-05-11T11:36:28.409Z,37.00
2019-05-11T11:38:54.531Z,35.90
2019-05-11T11:41:20.640Z,38.20
2019-05-11T11:43:48.307Z,38.70
2019-05-11T11:46:14.671Z,37.90
2019-05-11T11:48:40.720Z,38.40
2019-05-11T11:51:08.114Z,38.20
2019-05-11T11:53:34.464Z,37.70
2019-05-11T11:56:00.600Z,37.60
2019-05-11T11:58:27.688Z,37.10
2019-05-11T12:00:53.984Z,37.30
2019-05-11T12:03:20.051Z,38.00
2019-05-11T12:05:47.698Z,37.80
2019-05-11T12:08:13.976Z,37.90
2019-05-11T12:10:40.049Z,38.20
2019-05-11T12:13:08.445Z,38.10
2019-05-11T12:15:34.062Z,37.10
2019-05-11T12:18:00.155Z,37.90
2019-05-11T12:20:28.481Z,36.90
2019-05-11T12:22:54.203Z,38.20
2019-05-11T12:25:20.283Z,36.70
2019-05-11T12:27:48.835Z,37.10
2019-05-11T12:30:14.707Z,37.40
2019-05-11T12:32:42.668Z,37.80
2019-05-11T12:35:08.755Z,37.90
2019-05-11T12:37:34.890Z,37.60
2019-05-11T12:40:01.043Z,36.30
2019-05-11T12:42:28.425Z,36.50
2019-05-11T12:44:54.624Z,37.30
2019-05-11T12:47:24.796Z,36.90
2019-05-11T12:49:48.687Z,36.70
2019-05-11T12:52:14.751Z,35.00
2019-05-11T12:54:40.928Z,35.20
2019-05-11T12:57:07.885Z,35.70
2019-05-11T12:59:34.232Z,35.60
2019-05-11T13:02:00.293Z,36.00
2019-05-11T13:04:28.215Z,36.70
2019-05-11T13:06:54.327Z,35.80
2019-05-11T13:09:20.416Z,34.60
2019-05-11T13:11:48.163Z,34.90
2019-05-11T13:14:14.439Z,34.90
2019-05-11T13:16:40.491Z,34.90
2019-05-11T13:19:08.347Z,34.70
2019-05-11T13:21:34.610Z,35.50
2019-05-11T13:24:00.760Z,35.30
2019-05-11T13:26:28.396Z,35.20
2019-05-11T13:28:54.667Z,34.40
2019-05-11T13:31:20.725Z,34.50
2019-05-11T13:33:48.040Z,33.90
2019-05-11T13:36:14.395Z,33.70
2019-05-11T13:38:40.527Z,33.80
2019-05-11T13:41:07.951Z,34.60
2019-05-11T13:43:34.241Z,34.40
2019-05-11T13:46:00.303Z,34.90
2019-05-11T13:48:28.129Z,34.50
2019-05-11T13:50:54.329Z,33.20
2019-05-11T13:53:20.447Z,33.90
2019-05-11T13:55:48.115Z,33.00
2019-05-11T13:58:14.579Z,34.60
2019-05-11T14:00:40.627Z,34.10
2019-05-11T14:03:07.893Z,34.30
2019-05-11T14:05:34.144Z,33.70
2019-05-11T14:08:00.199Z,34.80
2019-05-11T14:10:28.282Z,33.90
2019-05-11T14:12:54.220Z,34.00
2019-05-11T14:15:20.275Z,33.50
2019-05-11T14:17:48.038Z,34.20
2019-05-11T14:20:14.552Z,33.20
2019-05-11T14:22:40.709Z,33.00
2019-05-11T14:25:08.054Z,33.30
2019-05-11T14:27:34.315Z,34.10
2019-05-11T14:30:03.947Z,34.30
2019-05-11T14:32:28.643Z,34.30
2019-05-11T14:34:54.920Z,33.20
2019-05-11T14:37:21.004Z,32.90
2019-05-11T14:39:48.226Z,33.00
2019-05-11T14:42:14.518Z,33.80
2019-05-11T14:44:40.575Z,33.30
2019-05-11T14:47:08.501Z,33.00
2019-05-11T14:49:34.612Z,32.90
2019-05-11T14:52:00.756Z,32.70
2019-05-11T14:54:28.874Z,32.40
2019-05-11T14:56:54.799Z,31.30
2019-05-11T14:59:20.875Z,31.00
2019-05-11T15:01:49.027Z,31.20
2019-05-11T15:04:14.895Z,31.60
2019-05-11T15:06:40.956Z,31.10
2019-05-11T15:09:07.919Z,31.50
2019-05-11T15:11:34.180Z,32.40
2019-05-11T15:14:00.239Z,32.90
2019-05-11T15:16:27.899Z,32.90
2019-05-11T15:18:54.184Z,32.70
2019-05-11T15:21:20.287Z,31.60
2019-05-11T15:23:47.777Z,32.00
2019-05-11T15:26:14.018Z,32.00
2019-05-11T15:28:40.067Z,32.10
2019-05-11T15:31:08.031Z,32.10
2019-05-11T15:33:34.107Z,33.00
2019-05-11T15:36:00.174Z,31.40
2019-05-11T15:38:28.279Z,31.90
2019-05-11T15:40:54.184Z,32.60
2019-05-11T15:43:20.243Z,32.20
2019-05-11T15:45:48.560Z,32.60
2019-05-11T15:48:14.358Z,32.40
2019-05-11T15:50:40.539Z,31.30
2019-05-11T15:53:08.623Z,32.70
2019-05-11T15:55:34.649Z,32.20
2019-05-11T15:58:00.704Z,33.10
2019-05-11T16:00:26.962Z,32.70
2019-05-11T16:02:53.046Z,33.20
2019-05-11T16:05:19.336Z,32.40
2019-05-11T16:07:45.404Z,31.70
2019-05-11T16:10:11.584Z,32.40
2019-05-11T16:12:39.011Z,31.30
2019-05-11T16:15:08.688Z,31.40
2019-05-11T16:17:34.959Z,31.60
2019-05-11T16:20:01.016Z,31.40
2019-05-11T16:22:27.998Z,31.70
2019-05-11T16:24:54.356Z,32.20
2019-05-11T16:27:20.416Z,31.90
2019-05-11T16:29:47.890Z,31.60
2019-05-11T16:32:14.252Z,32.30
2019-05-11T16:34:40.300Z,32.60
2019-05-11T16:37:09.914Z,32.80
2019-05-11T16:39:34.317Z,32.80
2019-05-11T16:42:00.447Z,33.00
2019-05-11T16:44:26.536Z,33.60
2019-05-11T16:46:52.611Z,33.80
2019-05-11T16:49:28.395Z,33.40
2019-05-11T16:51:46.667Z,33.60
2019-05-11T16:54:12.736Z,33.60
2019-05-11T16:56:38.788Z,33.40
2019-05-11T16:59:04.835Z,33.50
2019-05-11T17:01:30.887Z,33.70
2019-05-11T17:03:57.824Z,33.00
2019-05-11T17:06:24.107Z,33.10
2019-05-11T17:08:50.167Z,33.60
2019-05-11T17:11:18.461Z,33.60
2019-05-11T17:13:44.191Z,33.90
2019-05-11T17:16:10.344Z,34.20
2019-05-11T17:18:36.425Z,34.50
2019-05-11T17:21:02.576Z,34.30
2019-05-11T17:23:30.959Z,34.50
2019-05-11T17:25:57.876Z,34.20
2019-05-11T17:28:24.362Z,34.20
2019-05-11T17:30:50.419Z,35.00
2019-05-11T17:33:17.776Z,34.60
2019-05-11T17:35:44.079Z,35.10
2019-05-11T17:38:10.133Z,35.20
2019-05-11T17:40:37.869Z,35.30
2019-05-11T17:43:04.069Z,35.40
2019-05-11T17:45:30.115Z,35.70
2019-05-11T17:47:57.948Z,36.10
2019-05-11T17:50:24.159Z,36.30
2019-05-11T17:52:50.233Z,36.40
2019-05-11T17:55:18.431Z,36.20
2019-05-11T17:57:44.332Z,38.10
2019-05-11T18:00:10.805Z,41.60
2019-05-11T18:02:38.977Z,44.10
2019-05-11T18:05:05.632Z,46.20
2019-05-11T18:07:31.684Z,46.70
2019-05-11T18:09:58.657Z,46.60
2019-05-11T18:12:24.916Z,46.60
2019-05-11T18:14:51.166Z,46.70
2019-05-11T18:17:17.863Z,47.30
2019-05-11T18:19:44.251Z,48.10
2019-05-11T18:22:10.300Z,48.60
2019-05-11T18:24:38.269Z,49.50
2019-05-11T18:27:04.345Z,49.60
2019-05-11T18:29:30.395Z,49.70
2019-05-11T18:31:57.941Z,50.10
2019-05-11T18:34:24.260Z,50.20
2019-05-11T18:36:50.324Z,50.50
2019-05-11T18:39:18.447Z,50.70
2019-05-11T18:41:44.347Z,51.10
2019-05-11T18:44:10.404Z,51.20
2019-05-11T18:46:38.837Z,51.50
2019-05-11T18:49:04.451Z,51.60
2019-05-11T18:51:30.493Z,51.70
2019-05-11T18:53:58.500Z,52.20
2019-05-11T18:56:24.645Z,52.90
2019-05-11T18:58:50.703Z,53.50
2019-05-11T19:01:17.895Z,54.00
2019-05-11T19:03:44.179Z,54.10
2019-05-11T19:06:10.230Z,55.00
2019-05-11T19:08:38.379Z,55.80
2019-05-11T19:11:04.360Z,55.90
2019-05-11T19:13:30.411Z,56.50
2019-05-11T19:15:58.336Z,57.00
2019-05-11T19:18:24.423Z,57.30
2019-05-11T19:20:50.479Z,57.70
2019-05-11T19:23:18.994Z,58.20
2019-05-11T19:25:44.516Z,58.20
2019-05-11T19:28:10.568Z,58.50
2019-05-11T19:30:38.363Z,58.50
2019-05-11T19:33:04.627Z,58.40
2019-05-11T19:35:30.675Z,58.70
2019-05-11T19:37:57.854Z,59.00
2019-05-11T19:40:24.091Z,59.20
2019-05-11T19:42:53.840Z,59.50
2019-05-11T19:45:20.091Z,59.90
2019-05-11T19:47:48.326Z,60.40
2019-05-11T19:50:14.092Z,61.10
2019-05-11T19:52:40.212Z,61.20
2019-05-11T19:55:08.440Z,62.60
2019-05-11T19:57:34.507Z,63.70
2019-05-11T20:00:00.676Z,63.50
2019-05-11T20:02:28.338Z,63.30
2019-05-11T20:04:54.690Z,64.20
2019-05-11T20:07:20.769Z,64.10
2019-05-11T20:09:46.931Z,64.70
2019-05-11T20:12:12.975Z,64.80
2019-05-11T20:14:39.024Z,65.40
2019-05-11T20:17:05.084Z,65.70
2019-05-11T20:19:31.268Z,65.70
2019-05-11T20:21:57.864Z,65.80
2019-05-11T20:24:25.203Z,66.30
2019-05-11T20:26:51.447Z,66.30
2019-05-11T20:29:17.547Z,66.70
2019-05-11T20:31:43.992Z,66.80
2019-05-11T20:34:10.058Z,67.60
2019-05-11T20:36:36.127Z,67.00
2019-05-11T20:39:05.584Z,67.60
2019-05-11T20:41:31.632Z,68.40
2019-05-11T20:43:58.052Z,68.60
2019-05-11T20:46:24.347Z,68.70
2019-05-11T20:48:50.424Z,68.50
2019-05-11T20:51:29.710Z,68.70
2019-05-11T20:53:46.308Z,69.20
2019-05-11T20:56:12.423Z,69.60
2019-05-11T20:58:54.127Z,70.30
2019-05-11T21:01:21.580Z,70.40
2019-05-11T21:03:48.591Z,70.10
2019-05-11T21:06:14.963Z,70.80
2019-05-11T21:08:41.009Z,70.90
2019-05-11T21:11:08.636Z,71.00
2019-05-11T21:13:34.959Z,71.20
2019-05-11T21:16:01.066Z,71.40
2019-05-11T21:18:28.740Z,71.60
2019-05-11T21:20:55.086Z,71.40
2019-05-11T21:23:21.240Z,71.30
2019-05-11T21:25:47.287Z,72.00
2019-05-11T21:28:13.467Z,71.70
2019-05-11T21:30:40.022Z,72.30
2019-05-11T21:33:08.481Z,72.10
2019-05-11T21:35:34.246Z,72.20
2019-05-11T21:38:00.304Z,72.40
2019-05-11T21:40:28.912Z,72.50
2019-05-11T21:42:54.331Z,73.30
2019-05-11T21:45:20.410Z,73.70
2019-05-11T21:47:48.677Z,73.40
2019-05-11T21:50:14.531Z,73.60
2019-05-11T21:52:40.588Z,73.80
2019-05-11T21:55:09.373Z,74.50
2019-05-11T21:57:35.260Z,74.30
2019-05-11T22:00:01.513Z,74.70
2019-05-11T22:02:28.680Z,74.30
2019-05-11T22:04:54.949Z,74.40
2019-05-11T22:07:23.172Z,74.50
2019-05-11T22:09:48.980Z,74.60
2019-05-11T22:12:15.047Z,75.70
2019-05-11T22:14:41.108Z,75.00
2019-05-11T22:17:07.786Z,74.80
2019-05-11T22:19:34.010Z,75.50
2019-05-11T22:22:00.067Z,74.90
2019-05-11T22:24:28.138Z,75.40
2019-05-11T22:26:54.228Z,75.90
2019-05-11T22:29:20.299Z,75.50
2019-05-11T22:31:48.252Z,75.90
2019-05-11T22:34:14.312Z,76.00
2019-05-11T22:36:40.363Z,76.10
2019-05-11T22:39:08.408Z,76.50
2019-05-11T22:41:34.724Z,77.70
2019-05-11T22:44:01.082Z,77.60
2019-05-11T22:46:28.068Z,78.10
2019-05-11T22:48:54.292Z,77.90
2019-05-11T22:51:20.347Z,78.10
2019-05-11T22:53:47.941Z,78.90
2019-05-11T22:56:14.395Z,78.90
2019-05-11T22:58:40.447Z,79.40
2019-05-11T23:01:08.495Z,78.90
2019-05-11T23:03:34.468Z,79.60
2019-05-11T23:06:00.541Z,80.00
2019-05-11T23:08:26.622Z,80.30
2019-05-11T23:10:52.669Z,80.60
2019-05-11T23:13:18.822Z,80.20
2019-05-11T23:15:44.981Z,80.50
2019-05-11T23:18:11.046Z,80.60
2019-05-11T23:20:38.556Z,80.50
2019-05-11T23:23:05.084Z,80.90
2019-05-11T23:25:31.579Z,80.70
2019-05-11T23:27:58.809Z,81.00
2019-05-11T23:30:24.991Z,80.70
2019-05-11T23:32:51.043Z,81.30
2019-05-11T23:35:18.735Z,81.10
2019-05-11T23:37:45.082Z,81.20
2019-05-11T23:40:11.432Z,81.20
2019-05-11T23:42:40.496Z,81.40
2019-05-11T23:45:08.424Z,81.60
2019-05-11T23:47:34.812Z,81.40
2019-05-11T23:50:01.784Z,81.80
2019-05-11T23:52:29.570Z,82.00
2019-05-11T23:54:55.791Z,82.30
2019-05-11T23:57:21.859Z,82.40
2019-05-11T23:59:48.007Z,82.80
